sensor_id;sensor_type;location;lat;lon;timestamp;P1;durP1;ratioP1;P2;durP2;ratioP2
83119;SDS011;73001;51.784;4.660;2023-12-14T00:02:12;19.84;;;18.81;;
83119;SDS011;73001;51.784;4.660;2023-12-14T00:10:04;18.62;;;17.89;;
83119;SDS011;73001;51.784;4.660;2023-12-14T00:12:30;17.69;;;17.11;;
83119;SDS011;73001;51.784;4.660;2023-12-14T00:14:59;18.16;;;17.41;;
83119;SDS011;73001;51.784;4.660;2023-12-14T00:17:25;17.65;;;17.07;;
83119;SDS011;73001;51.784;4.660;2023-12-14T00:19:51;17.30;;;16.71;;
83119;SDS011;73001;51.784;4.660;2023-12-14T00:22:16;17.32;;;16.73;;
83119;SDS011;73001;51.784;4.660;2023-12-14T00:24:42;17.18;;;16.61;;
83119;SDS011;73001;51.784;4.660;2023-12-14T00:27:07;17.02;;;16.49;;
83119;SDS011;73001;51.784;4.660;2023-12-14T00:29:34;16.79;;;16.27;;
83119;SDS011;73001;51.784;4.660;2023-12-14T00:32:08;17.16;;;16.70;;
83119;SDS011;73001;51.784;4.660;2023-12-14T00:37:35;16.41;;;15.86;;
83119;SDS011;73001;51.784;4.660;2023-12-14T00:50:28;15.68;;;15.20;;
83119;SDS011;73001;51.784;4.660;2023-12-14T01:11:04;14.15;;;13.86;;
83119;SDS011;73001;51.784;4.660;2023-12-14T01:21:26;14.62;;;14.31;;
83119;SDS011;73001;51.784;4.660;2023-12-14T01:32:46;14.44;;;14.08;;
83119;SDS011;73001;51.784;4.660;2023-12-14T01:46:33;14.44;;;13.92;;
83119;SDS011;73001;51.784;4.660;2023-12-14T01:54:11;14.59;;;14.12;;
83119;SDS011;73001;51.784;4.660;2023-12-14T01:56:39;14.43;;;14.06;;
83119;SDS011;73001;51.784;4.660;2023-12-14T01:59:05;14.36;;;13.96;;
83119;SDS011;73001;51.784;4.660;2023-12-14T02:11:52;15.32;;;14.87;;
83119;SDS011;73001;51.784;4.660;2023-12-14T02:14:23;14.30;;;13.88;;
83119;SDS011;73001;51.784;4.660;2023-12-14T02:27:08;14.42;;;14.07;;
83119;SDS011;73001;51.784;4.660;2023-12-14T02:29:36;14.04;;;13.67;;
83119;SDS011;73001;51.784;4.660;2023-12-14T02:32:02;15.52;;;14.82;;
83119;SDS011;73001;51.784;4.660;2023-12-14T02:34:27;14.42;;;13.95;;
83119;SDS011;73001;51.784;4.660;2023-12-14T02:36:57;15.08;;;14.65;;
83119;SDS011;73001;51.784;4.660;2023-12-14T02:42:12;14.90;;;14.45;;
83119;SDS011;73001;51.784;4.660;2023-12-14T02:47:16;14.89;;;14.27;;
83119;SDS011;73001;51.784;4.660;2023-12-14T02:52:31;14.72;;;14.40;;
83119;SDS011;73001;51.784;4.660;2023-12-14T03:08:24;15.74;;;15.46;;
83119;SDS011;73001;51.784;4.660;2023-12-14T03:13:30;15.93;;;15.56;;
83119;SDS011;73001;51.784;4.660;2023-12-14T03:18:48;15.27;;;14.90;;
83119;SDS011;73001;51.784;4.660;2023-12-14T03:26:28;15.74;;;15.28;;
83119;SDS011;73001;51.784;4.660;2023-12-14T03:28:54;15.60;;;15.17;;
83119;SDS011;73001;51.784;4.660;2023-12-14T03:39:22;15.53;;;15.29;;
83119;SDS011;73001;51.784;4.660;2023-12-14T03:41:48;16.55;;;16.24;;
83119;SDS011;73001;51.784;4.660;2023-12-14T03:46:50;17.25;;;16.74;;
83119;SDS011;73001;51.784;4.660;2023-12-14T03:51:51;16.52;;;16.14;;
83119;SDS011;73001;51.784;4.660;2023-12-14T03:59:45;15.63;;;15.33;;
83119;SDS011;73001;51.784;4.660;2023-12-14T04:04:46;15.62;;;15.39;;
83119;SDS011;73001;51.784;4.660;2023-12-14T04:09:47;15.70;;;15.39;;
83119;SDS011;73001;51.784;4.660;2023-12-14T04:14:43;15.76;;;15.45;;
83119;SDS011;73001;51.784;4.660;2023-12-14T04:17:10;15.59;;;15.32;;
83119;SDS011;73001;51.784;4.660;2023-12-14T04:19:38;16.11;;;15.90;;
83119;SDS011;73001;51.784;4.660;2023-12-14T04:22:11;16.00;;;15.59;;
83119;SDS011;73001;51.784;4.660;2023-12-14T04:27:52;14.97;;;14.62;;
83119;SDS011;73001;51.784;4.660;2023-12-14T04:30:28;15.81;;;15.51;;
83119;SDS011;73001;51.784;4.660;2023-12-14T04:32:54;15.59;;;15.28;;
83119;SDS011;73001;51.784;4.660;2023-12-14T04:51:36;16.29;;;15.98;;
83119;SDS011;73001;51.784;4.660;2023-12-14T04:54:04;16.09;;;15.71;;
83119;SDS011;73001;51.784;4.660;2023-12-14T05:13:01;11.87;;;11.66;;
83119;SDS011;73001;51.784;4.660;2023-12-14T05:26:49;12.12;;;11.75;;
83119;SDS011;73001;51.784;4.660;2023-12-14T05:31:46;11.39;;;11.21;;
83119;SDS011;73001;51.784;4.660;2023-12-14T05:34:12;11.36;;;11.25;;
83119;SDS011;73001;51.784;4.660;2023-12-14T05:36:44;10.73;;;10.54;;
83119;SDS011;73001;51.784;4.660;2023-12-14T05:41:45;10.76;;;10.56;;
83119;SDS011;73001;51.784;4.660;2023-12-14T05:52:17;9.52;;;9.40;;
83119;SDS011;73001;51.784;4.660;2023-12-14T06:05:24;9.45;;;9.24;;
83119;SDS011;73001;51.784;4.660;2023-12-14T06:18:45;7.67;;;7.64;;
83119;SDS011;73001;51.784;4.660;2023-12-14T06:21:11;7.75;;;7.63;;
83119;SDS011;73001;51.784;4.660;2023-12-14T06:23:37;7.31;;;7.24;;
83119;SDS011;73001;51.784;4.660;2023-12-14T06:26:04;7.53;;;7.46;;
83119;SDS011;73001;51.784;4.660;2023-12-14T06:28:32;7.32;;;7.27;;
83119;SDS011;73001;51.784;4.660;2023-12-14T06:33:39;7.11;;;7.02;;
83119;SDS011;73001;51.784;4.660;2023-12-14T06:38:40;7.60;;;7.51;;
83119;SDS011;73001;51.784;4.660;2023-12-14T06:41:06;7.66;;;7.57;;
83119;SDS011;73001;51.784;4.660;2023-12-14T06:43:35;7.80;;;7.74;;
83119;SDS011;73001;51.784;4.660;2023-12-14T06:46:01;7.47;;;7.44;;
83119;SDS011;73001;51.784;4.660;2023-12-14T06:51:07;6.88;;;6.83;;
83119;SDS011;73001;51.784;4.660;2023-12-14T06:53:34;6.85;;;6.78;;
83119;SDS011;73001;51.784;4.660;2023-12-14T07:01:14;7.06;;;6.99;;
83119;SDS011;73001;51.784;4.660;2023-12-14T07:12:00;7.25;;;7.23;;
83119;SDS011;73001;51.784;4.660;2023-12-14T07:22:20;8.08;;;8.00;;
83119;SDS011;73001;51.784;4.660;2023-12-14T07:24:46;7.68;;;7.60;;
83119;SDS011;73001;51.784;4.660;2023-12-14T07:27:14;7.75;;;7.74;;
83119;SDS011;73001;51.784;4.660;2023-12-14T07:29:40;8.33;;;8.29;;
83119;SDS011;73001;51.784;4.660;2023-12-14T07:37:10;7.66;;;7.59;;
83119;SDS011;73001;51.784;4.660;2023-12-14T07:40:04;8.11;;;8.06;;
83119;SDS011;73001;51.784;4.660;2023-12-14T07:42:32;7.58;;;7.55;;
83119;SDS011;73001;51.784;4.660;2023-12-14T07:44:58;7.46;;;7.43;;
83119;SDS011;73001;51.784;4.660;2023-12-14T07:52:29;8.74;;;8.72;;
83119;SDS011;73001;51.784;4.660;2023-12-14T07:57:21;9.86;;;9.85;;
83119;SDS011;73001;51.784;4.660;2023-12-14T07:59:48;10.22;;;10.05;;
83119;SDS011;73001;51.784;4.660;2023-12-14T08:02:15;10.50;;;10.41;;
83119;SDS011;73001;51.784;4.660;2023-12-14T08:04:40;9.99;;;9.92;;
83119;SDS011;73001;51.784;4.660;2023-12-14T08:07:16;10.59;;;10.41;;
83119;SDS011;73001;51.784;4.660;2023-12-14T08:09:42;10.73;;;10.50;;
83119;SDS011;73001;51.784;4.660;2023-12-14T08:12:08;11.24;;;11.08;;
83119;SDS011;73001;51.784;4.660;2023-12-14T08:14:34;11.12;;;11.12;;
83119;SDS011;73001;51.784;4.660;2023-12-14T08:17:18;10.42;;;10.38;;
83119;SDS011;73001;51.784;4.660;2023-12-14T08:19:45;10.62;;;10.54;;
83119;SDS011;73001;51.784;4.660;2023-12-14T08:22:10;11.10;;;11.05;;
83119;SDS011;73001;51.784;4.660;2023-12-14T08:24:40;10.81;;;10.74;;
83119;SDS011;73001;51.784;4.660;2023-12-14T08:27:05;10.55;;;10.42;;
83119;SDS011;73001;51.784;4.660;2023-12-14T08:29:32;11.06;;;10.90;;
83119;SDS011;73001;51.784;4.660;2023-12-14T08:31:57;10.30;;;10.18;;
83119;SDS011;73001;51.784;4.660;2023-12-14T08:34:25;10.26;;;10.03;;
83119;SDS011;73001;51.784;4.660;2023-12-14T08:36:52;10.99;;;10.67;;
83119;SDS011;73001;51.784;4.660;2023-12-14T08:39:18;10.67;;;10.42;;
83119;SDS011;73001;51.784;4.660;2023-12-14T08:41:47;10.76;;;10.62;;
83119;SDS011;73001;51.784;4.660;2023-12-14T08:44:14;10.27;;;10.09;;
83119;SDS011;73001;51.784;4.660;2023-12-14T08:46:44;10.23;;;10.11;;
83119;SDS011;73001;51.784;4.660;2023-12-14T08:49:12;10.22;;;10.10;;
83119;SDS011;73001;51.784;4.660;2023-12-14T08:51:38;10.31;;;10.20;;
83119;SDS011;73001;51.784;4.660;2023-12-14T08:54:05;10.39;;;10.36;;
83119;SDS011;73001;51.784;4.660;2023-12-14T08:56:31;10.35;;;10.29;;
83119;SDS011;73001;51.784;4.660;2023-12-14T08:58:57;11.07;;;10.95;;
83119;SDS011;73001;51.784;4.660;2023-12-14T09:01:24;10.44;;;10.23;;
83119;SDS011;73001;51.784;4.660;2023-12-14T09:03:50;10.62;;;10.45;;
83119;SDS011;73001;51.784;4.660;2023-12-14T09:06:16;10.63;;;10.59;;
83119;SDS011;73001;51.784;4.660;2023-12-14T09:08:46;11.12;;;10.96;;
83119;SDS011;73001;51.784;4.660;2023-12-14T09:11:12;11.12;;;10.96;;
83119;SDS011;73001;51.784;4.660;2023-12-14T09:13:40;11.10;;;10.90;;
83119;SDS011;73001;51.784;4.660;2023-12-14T09:16:07;11.44;;;11.27;;
83119;SDS011;73001;51.784;4.660;2023-12-14T09:18:34;11.63;;;11.61;;
83119;SDS011;73001;51.784;4.660;2023-12-14T09:21:00;11.79;;;11.67;;
83119;SDS011;73001;51.784;4.660;2023-12-14T09:23:26;11.86;;;11.72;;
83119;SDS011;73001;51.784;4.660;2023-12-14T09:25:52;11.53;;;11.32;;
83119;SDS011;73001;51.784;4.660;2023-12-14T09:28:18;11.96;;;11.74;;
83119;SDS011;73001;51.784;4.660;2023-12-14T09:30:44;11.65;;;11.38;;
83119;SDS011;73001;51.784;4.660;2023-12-14T09:33:11;12.01;;;11.85;;
83119;SDS011;73001;51.784;4.660;2023-12-14T09:35:36;12.55;;;12.49;;
83119;SDS011;73001;51.784;4.660;2023-12-14T09:38:02;11.59;;;11.48;;
83119;SDS011;73001;51.784;4.660;2023-12-14T09:40:29;11.25;;;11.15;;
83119;SDS011;73001;51.784;4.660;2023-12-14T09:42:55;11.51;;;11.22;;
83119;SDS011;73001;51.784;4.660;2023-12-14T09:45:23;10.90;;;10.74;;
83119;SDS011;73001;51.784;4.660;2023-12-14T09:47:54;10.38;;;10.23;;
83119;SDS011;73001;51.784;4.660;2023-12-14T09:50:22;10.37;;;10.37;;
83119;SDS011;73001;51.784;4.660;2023-12-14T09:52:49;9.97;;;9.96;;
83119;SDS011;73001;51.784;4.660;2023-12-14T09:55:17;10.18;;;10.18;;
83119;SDS011;73001;51.784;4.660;2023-12-14T09:57:42;9.67;;;9.67;;
83119;SDS011;73001;51.784;4.660;2023-12-14T10:00:10;9.60;;;9.55;;
83119;SDS011;73001;51.784;4.660;2023-12-14T10:02:38;9.46;;;9.43;;
83119;SDS011;73001;51.784;4.660;2023-12-14T10:05:06;9.49;;;9.36;;
83119;SDS011;73001;51.784;4.660;2023-12-14T10:07:40;9.64;;;9.48;;
83119;SDS011;73001;51.784;4.660;2023-12-14T10:10:11;9.43;;;9.33;;
83119;SDS011;73001;51.784;4.660;2023-12-14T10:12:51;9.65;;;9.60;;
83119;SDS011;73001;51.784;4.660;2023-12-14T10:15:24;9.67;;;9.63;;
83119;SDS011;73001;51.784;4.660;2023-12-14T10:17:52;10.14;;;10.03;;
83119;SDS011;73001;51.784;4.660;2023-12-14T10:20:23;10.50;;;10.42;;
83119;SDS011;73001;51.784;4.660;2023-12-14T10:22:52;10.65;;;10.43;;
83119;SDS011;73001;51.784;4.660;2023-12-14T10:25:21;10.52;;;10.27;;
83119;SDS011;73001;51.784;4.660;2023-12-14T10:27:55;9.85;;;9.78;;
83119;SDS011;73001;51.784;4.660;2023-12-14T10:30:22;10.52;;;10.37;;
83119;SDS011;73001;51.784;4.660;2023-12-14T10:32:50;12.26;;;12.17;;
83119;SDS011;73001;51.784;4.660;2023-12-14T10:35:16;12.04;;;11.98;;
83119;SDS011;73001;51.784;4.660;2023-12-14T10:37:44;10.33;;;10.29;;
83119;SDS011;73001;51.784;4.660;2023-12-14T10:40:14;10.98;;;10.84;;
83119;SDS011;73001;51.784;4.660;2023-12-14T10:42:43;9.93;;;9.75;;
83119;SDS011;73001;51.784;4.660;2023-12-14T10:45:11;9.58;;;9.43;;
83119;SDS011;73001;51.784;4.660;2023-12-14T10:47:43;8.99;;;8.97;;
83119;SDS011;73001;51.784;4.660;2023-12-14T10:50:10;11.14;;;11.06;;
83119;SDS011;73001;51.784;4.660;2023-12-14T10:52:38;12.79;;;12.61;;
83119;SDS011;73001;51.784;4.660;2023-12-14T10:55:15;11.83;;;11.67;;
83119;SDS011;73001;51.784;4.660;2023-12-14T10:57:50;10.61;;;10.49;;
83119;SDS011;73001;51.784;4.660;2023-12-14T11:00:17;10.24;;;10.10;;
83119;SDS011;73001;51.784;4.660;2023-12-14T11:02:46;10.39;;;10.14;;
83119;SDS011;73001;51.784;4.660;2023-12-14T11:05:14;10.43;;;10.20;;
83119;SDS011;73001;51.784;4.660;2023-12-14T11:07:52;10.60;;;10.38;;
83119;SDS011;73001;51.784;4.660;2023-12-14T11:10:28;10.28;;;10.21;;
83119;SDS011;73001;51.784;4.660;2023-12-14T11:13:06;10.87;;;10.78;;
83119;SDS011;73001;51.784;4.660;2023-12-14T11:15:39;10.60;;;10.44;;
83119;SDS011;73001;51.784;4.660;2023-12-14T11:23:11;10.12;;;10.00;;
83119;SDS011;73001;51.784;4.660;2023-12-14T11:25:39;10.06;;;10.06;;
83119;SDS011;73001;51.784;4.660;2023-12-14T11:28:06;11.35;;;11.15;;
83119;SDS011;73001;51.784;4.660;2023-12-14T11:30:38;9.91;;;9.77;;
83119;SDS011;73001;51.784;4.660;2023-12-14T11:33:05;10.47;;;10.34;;
83119;SDS011;73001;51.784;4.660;2023-12-14T11:35:35;15.16;;;14.91;;
83119;SDS011;73001;51.784;4.660;2023-12-14T11:38:01;12.18;;;11.96;;
83119;SDS011;73001;51.784;4.660;2023-12-14T11:40:44;10.96;;;10.87;;
83119;SDS011;73001;51.784;4.660;2023-12-14T11:43:10;10.75;;;10.61;;
83119;SDS011;73001;51.784;4.660;2023-12-14T11:45:39;10.28;;;10.13;;
83119;SDS011;73001;51.784;4.660;2023-12-14T11:48:06;10.21;;;10.20;;
83119;SDS011;73001;51.784;4.660;2023-12-14T11:50:36;10.30;;;10.29;;
83119;SDS011;73001;51.784;4.660;2023-12-14T11:53:03;9.82;;;9.76;;
83119;SDS011;73001;51.784;4.660;2023-12-14T11:55:30;10.33;;;10.19;;
83119;SDS011;73001;51.784;4.660;2023-12-14T11:57:57;10.96;;;10.89;;
83119;SDS011;73001;51.784;4.660;2023-12-14T12:00:26;11.96;;;11.80;;
83119;SDS011;73001;51.784;4.660;2023-12-14T12:03:12;11.85;;;11.63;;
83119;SDS011;73001;51.784;4.660;2023-12-14T12:05:43;11.93;;;11.70;;
83119;SDS011;73001;51.784;4.660;2023-12-14T12:08:11;12.07;;;11.97;;
83119;SDS011;73001;51.784;4.660;2023-12-14T12:10:41;11.94;;;11.80;;
83119;SDS011;73001;51.784;4.660;2023-12-14T12:13:18;11.66;;;11.59;;
83119;SDS011;73001;51.784;4.660;2023-12-14T12:15:46;11.36;;;11.27;;
83119;SDS011;73001;51.784;4.660;2023-12-14T12:18:13;12.04;;;11.92;;
83119;SDS011;73001;51.784;4.660;2023-12-14T12:20:42;11.99;;;11.73;;
83119;SDS011;73001;51.784;4.660;2023-12-14T12:23:08;11.96;;;11.66;;
83119;SDS011;73001;51.784;4.660;2023-12-14T12:25:35;11.23;;;11.06;;
83119;SDS011;73001;51.784;4.660;2023-12-14T12:28:01;10.95;;;10.79;;
83119;SDS011;73001;51.784;4.660;2023-12-14T12:30:31;11.24;;;11.04;;
83119;SDS011;73001;51.784;4.660;2023-12-14T12:32:57;10.68;;;10.46;;
83119;SDS011;73001;51.784;4.660;2023-12-14T12:35:23;10.94;;;10.83;;
83119;SDS011;73001;51.784;4.660;2023-12-14T12:37:59;10.90;;;10.72;;
83119;SDS011;73001;51.784;4.660;2023-12-14T12:40:25;10.88;;;10.68;;
83119;SDS011;73001;51.784;4.660;2023-12-14T12:42:51;10.50;;;10.41;;
83119;SDS011;73001;51.784;4.660;2023-12-14T12:45:25;11.05;;;10.82;;
83119;SDS011;73001;51.784;4.660;2023-12-14T12:47:55;10.43;;;10.12;;
83119;SDS011;73001;51.784;4.660;2023-12-14T12:50:20;10.07;;;9.89;;
83119;SDS011;73001;51.784;4.660;2023-12-14T12:52:49;10.09;;;9.94;;
83119;SDS011;73001;51.784;4.660;2023-12-14T12:55:16;10.28;;;10.11;;
83119;SDS011;73001;51.784;4.660;2023-12-14T12:57:44;9.91;;;9.72;;
83119;SDS011;73001;51.784;4.660;2023-12-14T13:00:13;9.75;;;9.52;;
83119;SDS011;73001;51.784;4.660;2023-12-14T13:02:43;9.61;;;9.49;;
83119;SDS011;73001;51.784;4.660;2023-12-14T13:05:10;9.91;;;9.75;;
83119;SDS011;73001;51.784;4.660;2023-12-14T13:07:36;10.61;;;10.40;;
83119;SDS011;73001;51.784;4.660;2023-12-14T13:10:02;10.63;;;10.53;;
83119;SDS011;73001;51.784;4.660;2023-12-14T13:12:31;11.21;;;11.08;;
83119;SDS011;73001;51.784;4.660;2023-12-14T13:14:58;13.18;;;12.91;;
83119;SDS011;73001;51.784;4.660;2023-12-14T13:17:24;11.73;;;11.55;;
83119;SDS011;73001;51.784;4.660;2023-12-14T13:19:51;11.30;;;11.19;;
83119;SDS011;73001;51.784;4.660;2023-12-14T13:22:17;12.61;;;12.41;;
83119;SDS011;73001;51.784;4.660;2023-12-14T13:24:43;20.31;;;19.29;;
83119;SDS011;73001;51.784;4.660;2023-12-14T13:27:09;16.42;;;15.70;;
83119;SDS011;73001;51.784;4.660;2023-12-14T13:29:37;14.48;;;13.71;;
83119;SDS011;73001;51.784;4.660;2023-12-14T13:32:03;10.96;;;10.78;;
83119;SDS011;73001;51.784;4.660;2023-12-14T13:34:29;14.15;;;13.83;;
83119;SDS011;73001;51.784;4.660;2023-12-14T13:36:54;14.88;;;14.16;;
83119;SDS011;73001;51.784;4.660;2023-12-14T13:39:23;12.44;;;12.06;;
83119;SDS011;73001;51.784;4.660;2023-12-14T13:41:49;9.32;;;9.28;;
83119;SDS011;73001;51.784;4.660;2023-12-14T13:44:15;8.64;;;8.60;;
83119;SDS011;73001;51.784;4.660;2023-12-14T13:46:40;8.73;;;8.71;;
83119;SDS011;73001;51.784;4.660;2023-12-14T13:49:06;7.78;;;7.74;;
83119;SDS011;73001;51.784;4.660;2023-12-14T13:51:32;7.98;;;7.93;;
83119;SDS011;73001;51.784;4.660;2023-12-14T13:53:58;8.34;;;8.27;;
83119;SDS011;73001;51.784;4.660;2023-12-14T13:56:23;8.27;;;8.21;;
83119;SDS011;73001;51.784;4.660;2023-12-14T13:58:49;8.44;;;8.37;;
83119;SDS011;73001;51.784;4.660;2023-12-14T14:01:15;9.39;;;9.22;;
83119;SDS011;73001;51.784;4.660;2023-12-14T14:03:41;8.88;;;8.77;;
83119;SDS011;73001;51.784;4.660;2023-12-14T14:06:07;9.22;;;9.15;;
83119;SDS011;73001;51.784;4.660;2023-12-14T14:08:41;8.87;;;8.78;;
83119;SDS011;73001;51.784;4.660;2023-12-14T14:11:06;8.92;;;8.82;;
83119;SDS011;73001;51.784;4.660;2023-12-14T14:13:34;8.70;;;8.66;;
83119;SDS011;73001;51.784;4.660;2023-12-14T14:16:00;8.76;;;8.67;;
83119;SDS011;73001;51.784;4.660;2023-12-14T14:18:26;8.69;;;8.60;;
83119;SDS011;73001;51.784;4.660;2023-12-14T14:20:52;8.62;;;8.54;;
83119;SDS011;73001;51.784;4.660;2023-12-14T14:23:17;8.67;;;8.60;;
83119;SDS011;73001;51.784;4.660;2023-12-14T14:25:43;8.87;;;8.77;;
83119;SDS011;73001;51.784;4.660;2023-12-14T14:28:09;8.96;;;8.89;;
83119;SDS011;73001;51.784;4.660;2023-12-14T14:30:34;9.50;;;9.48;;
83119;SDS011;73001;51.784;4.660;2023-12-14T14:33:01;9.75;;;9.67;;
83119;SDS011;73001;51.784;4.660;2023-12-14T14:35:26;9.53;;;9.40;;
83119;SDS011;73001;51.784;4.660;2023-12-14T14:37:56;9.91;;;9.86;;
83119;SDS011;73001;51.784;4.660;2023-12-14T14:40:22;10.00;;;9.91;;
83119;SDS011;73001;51.784;4.660;2023-12-14T14:42:47;9.90;;;9.76;;
83119;SDS011;73001;51.784;4.660;2023-12-14T14:45:16;9.98;;;9.83;;
83119;SDS011;73001;51.784;4.660;2023-12-14T14:47:43;9.61;;;9.54;;
83119;SDS011;73001;51.784;4.660;2023-12-14T14:50:09;9.23;;;9.17;;
83119;SDS011;73001;51.784;4.660;2023-12-14T14:52:35;8.95;;;8.91;;
83119;SDS011;73001;51.784;4.660;2023-12-14T14:55:01;8.83;;;8.82;;
83119;SDS011;73001;51.784;4.660;2023-12-14T14:57:26;8.28;;;8.22;;
83119;SDS011;73001;51.784;4.660;2023-12-14T14:59:52;8.35;;;8.29;;
83119;SDS011;73001;51.784;4.660;2023-12-14T15:02:18;8.31;;;8.29;;
83119;SDS011;73001;51.784;4.660;2023-12-14T15:04:44;8.02;;;7.99;;
83119;SDS011;73001;51.784;4.660;2023-12-14T15:07:10;7.84;;;7.83;;
83119;SDS011;73001;51.784;4.660;2023-12-14T15:09:35;8.21;;;8.17;;
83119;SDS011;73001;51.784;4.660;2023-12-14T15:12:01;8.27;;;8.20;;
83119;SDS011;73001;51.784;4.660;2023-12-14T15:14:27;7.80;;;7.73;;
83119;SDS011;73001;51.784;4.660;2023-12-14T15:16:55;7.24;;;7.22;;
83119;SDS011;73001;51.784;4.660;2023-12-14T15:19:21;7.25;;;7.24;;
83119;SDS011;73001;51.784;4.660;2023-12-14T15:21:49;7.35;;;7.32;;
83119;SDS011;73001;51.784;4.660;2023-12-14T15:24:22;7.29;;;7.20;;
83119;SDS011;73001;51.784;4.660;2023-12-14T15:26:52;7.33;;;7.26;;
83119;SDS011;73001;51.784;4.660;2023-12-14T15:29:17;7.31;;;7.27;;
83119;SDS011;73001;51.784;4.660;2023-12-14T15:31:43;7.20;;;7.13;;
83119;SDS011;73001;51.784;4.660;2023-12-14T15:34:08;7.33;;;7.25;;
83119;SDS011;73001;51.784;4.660;2023-12-14T15:36:34;7.19;;;7.15;;
83119;SDS011;73001;51.784;4.660;2023-12-14T15:39:02;7.00;;;6.92;;
83119;SDS011;73001;51.784;4.660;2023-12-14T15:41:32;6.46;;;6.46;;
83119;SDS011;73001;51.784;4.660;2023-12-14T15:44:00;6.98;;;6.97;;
83119;SDS011;73001;51.784;4.660;2023-12-14T15:46:26;7.44;;;7.42;;
83119;SDS011;73001;51.784;4.660;2023-12-14T15:48:52;7.43;;;7.39;;
83119;SDS011;73001;51.784;4.660;2023-12-14T15:51:18;6.60;;;6.58;;
83119;SDS011;73001;51.784;4.660;2023-12-14T15:53:44;6.85;;;6.83;;
83119;SDS011;73001;51.784;4.660;2023-12-14T15:56:10;7.22;;;7.20;;
83119;SDS011;73001;51.784;4.660;2023-12-14T15:58:36;7.33;;;7.28;;
83119;SDS011;73001;51.784;4.660;2023-12-14T16:01:04;7.22;;;7.19;;
83119;SDS011;73001;51.784;4.660;2023-12-14T16:03:30;6.76;;;6.72;;
83119;SDS011;73001;51.784;4.660;2023-12-14T16:06:02;6.84;;;6.78;;
83119;SDS011;73001;51.784;4.660;2023-12-14T16:08:30;6.27;;;6.22;;
83119;SDS011;73001;51.784;4.660;2023-12-14T16:10:59;6.12;;;6.08;;
83119;SDS011;73001;51.784;4.660;2023-12-14T16:13:24;6.10;;;6.08;;
83119;SDS011;73001;51.784;4.660;2023-12-14T16:15:51;6.23;;;6.21;;
83119;SDS011;73001;51.784;4.660;2023-12-14T16:18:16;6.49;;;6.45;;
83119;SDS011;73001;51.784;4.660;2023-12-14T16:23:34;25.91;;;25.75;;
83119;SDS011;73001;51.784;4.660;2023-12-14T16:26:00;14.27;;;14.21;;
83119;SDS011;73001;51.784;4.660;2023-12-14T16:31:04;16.18;;;16.13;;
83119;SDS011;73001;51.784;4.660;2023-12-14T16:33:33;12.99;;;12.98;;
83119;SDS011;73001;51.784;4.660;2023-12-14T16:36:09;13.22;;;13.22;;
83119;SDS011;73001;51.784;4.660;2023-12-14T16:38:36;13.32;;;12.72;;
83119;SDS011;73001;51.784;4.660;2023-12-14T16:41:02;22.20;;;18.66;;
83119;SDS011;73001;51.784;4.660;2023-12-14T16:43:28;19.06;;;17.14;;
83119;SDS011;73001;51.784;4.660;2023-12-14T16:45:54;13.10;;;12.56;;
83119;SDS011;73001;51.784;4.660;2023-12-14T16:48:24;9.71;;;9.69;;
83119;SDS011;73001;51.784;4.660;2023-12-14T16:50:52;10.50;;;10.50;;
83119;SDS011;73001;51.784;4.660;2023-12-14T16:53:21;7.24;;;7.24;;
83119;SDS011;73001;51.784;4.660;2023-12-14T16:58:26;7.86;;;7.86;;
83119;SDS011;73001;51.784;4.660;2023-12-14T17:00:52;5.26;;;5.26;;
83119;SDS011;73001;51.784;4.660;2023-12-14T17:03:21;4.99;;;4.99;;
83119;SDS011;73001;51.784;4.660;2023-12-14T17:08:22;6.31;;;6.31;;
83119;SDS011;73001;51.784;4.660;2023-12-14T17:10:51;5.17;;;5.17;;
83119;SDS011;73001;51.784;4.660;2023-12-14T17:13:17;4.88;;;4.87;;
83119;SDS011;73001;51.784;4.660;2023-12-14T17:15:46;4.79;;;4.77;;
83119;SDS011;73001;51.784;4.660;2023-12-14T17:18:11;4.93;;;4.90;;
83119;SDS011;73001;51.784;4.660;2023-12-14T17:20:37;5.38;;;5.37;;
83119;SDS011;73001;51.784;4.660;2023-12-14T17:23:06;4.58;;;4.58;;
83119;SDS011;73001;51.784;4.660;2023-12-14T17:25:32;4.38;;;4.38;;
83119;SDS011;73001;51.784;4.660;2023-12-14T17:27:58;4.36;;;4.34;;
83119;SDS011;73001;51.784;4.660;2023-12-14T17:30:24;4.71;;;4.65;;
83119;SDS011;73001;51.784;4.660;2023-12-14T17:32:50;4.71;;;4.67;;
83119;SDS011;73001;51.784;4.660;2023-12-14T17:35:16;4.76;;;4.74;;
83119;SDS011;73001;51.784;4.660;2023-12-14T17:37:42;4.92;;;4.91;;
83119;SDS011;73001;51.784;4.660;2023-12-14T17:40:08;4.52;;;4.50;;
83119;SDS011;73001;51.784;4.660;2023-12-14T17:42:37;4.77;;;4.73;;
83119;SDS011;73001;51.784;4.660;2023-12-14T17:45:03;5.79;;;5.75;;
83119;SDS011;73001;51.784;4.660;2023-12-14T17:47:29;6.33;;;6.32;;
83119;SDS011;73001;51.784;4.660;2023-12-14T17:50:15;6.18;;;6.18;;
83119;SDS011;73001;51.784;4.660;2023-12-14T17:52:41;8.67;;;8.55;;
83119;SDS011;73001;51.784;4.660;2023-12-14T17:55:08;10.84;;;10.51;;
83119;SDS011;73001;51.784;4.660;2023-12-14T17:57:37;7.14;;;6.91;;
83119;SDS011;73001;51.784;4.660;2023-12-14T18:00:03;8.22;;;7.81;;
83119;SDS011;73001;51.784;4.660;2023-12-14T18:02:32;8.87;;;8.78;;
83119;SDS011;73001;51.784;4.660;2023-12-14T18:05:02;9.69;;;9.69;;
83119;SDS011;73001;51.784;4.660;2023-12-14T18:07:29;8.78;;;8.78;;
83119;SDS011;73001;51.784;4.660;2023-12-14T18:09:57;7.20;;;7.20;;
83119;SDS011;73001;51.784;4.660;2023-12-14T18:12:23;6.43;;;6.43;;
83119;SDS011;73001;51.784;4.660;2023-12-14T18:14:49;7.99;;;7.98;;
83119;SDS011;73001;51.784;4.660;2023-12-14T18:17:19;5.83;;;5.82;;
83119;SDS011;73001;51.784;4.660;2023-12-14T18:19:46;5.40;;;5.39;;
83119;SDS011;73001;51.784;4.660;2023-12-14T18:22:13;4.88;;;4.84;;
83119;SDS011;73001;51.784;4.660;2023-12-14T18:24:40;6.78;;;6.73;;
83119;SDS011;73001;51.784;4.660;2023-12-14T18:27:11;5.31;;;5.30;;
83119;SDS011;73001;51.784;4.660;2023-12-14T18:32:13;7.73;;;7.73;;
83119;SDS011;73001;51.784;4.660;2023-12-14T18:34:39;6.91;;;6.90;;
83119;SDS011;73001;51.784;4.660;2023-12-14T18:37:06;8.94;;;8.94;;
83119;SDS011;73001;51.784;4.660;2023-12-14T18:39:41;11.09;;;11.09;;
83119;SDS011;73001;51.784;4.660;2023-12-14T18:42:08;7.47;;;7.47;;
83119;SDS011;73001;51.784;4.660;2023-12-14T18:44:36;6.40;;;6.40;;
83119;SDS011;73001;51.784;4.660;2023-12-14T18:47:02;7.79;;;7.79;;
83119;SDS011;73001;51.784;4.660;2023-12-14T18:49:29;5.82;;;5.82;;
83119;SDS011;73001;51.784;4.660;2023-12-14T18:51:54;5.84;;;5.84;;
83119;SDS011;73001;51.784;4.660;2023-12-14T18:54:22;6.67;;;6.67;;
83119;SDS011;73001;51.784;4.660;2023-12-14T18:56:48;4.77;;;4.77;;
83119;SDS011;73001;51.784;4.660;2023-12-14T18:59:14;5.32;;;5.32;;
83119;SDS011;73001;51.784;4.660;2023-12-14T19:01:42;4.87;;;4.87;;
83119;SDS011;73001;51.784;4.660;2023-12-14T19:04:09;5.82;;;5.82;;
83119;SDS011;73001;51.784;4.660;2023-12-14T19:06:35;9.11;;;9.11;;
83119;SDS011;73001;51.784;4.660;2023-12-14T19:09:01;8.85;;;8.85;;
83119;SDS011;73001;51.784;4.660;2023-12-14T19:11:27;12.53;;;12.53;;
83119;SDS011;73001;51.784;4.660;2023-12-14T19:13:54;20.39;;;20.39;;
83119;SDS011;73001;51.784;4.660;2023-12-14T19:16:45;10.05;;;10.05;;
83119;SDS011;73001;51.784;4.660;2023-12-14T19:19:15;6.28;;;6.28;;
83119;SDS011;73001;51.784;4.660;2023-12-14T19:22:00;4.00;;;4.00;;
83119;SDS011;73001;51.784;4.660;2023-12-14T19:24:47;3.75;;;3.72;;
83119;SDS011;73001;51.784;4.660;2023-12-14T19:27:13;3.75;;;3.70;;
83119;SDS011;73001;51.784;4.660;2023-12-14T19:29:39;3.83;;;3.78;;